Time,TemperatureF,DewpointF,PressureIn,WindDirection,WindDirectionDegrees,WindSpeedMPH,WindSpeedGustMPH,Humidity,HourlyPrecipIn,Conditions,Clouds,dailyrainin,SoftwareType,DateUTC
2013-09-27 00:21:00,51.0,40.0,30.16,North,0,0.0,0.0,66,0.00,,,0.00,,2013-09-27 07:21:00,
2013-09-27 00:53:00,51.0,40.0,30.17,North,0,0.0,0.0,67,0.00,,,0.00,,2013-09-27 07:53:00,
2013-09-27 01:22:00,51.0,39.0,30.16,North,0,0.0,0.0,64,0.00,,,0.00,,2013-09-27 08:22:00,
2013-09-27 01:52:00,51.0,39.0,30.16,North,0,0.0,0.0,63,0.00,,,0.00,,2013-09-27 08:52:00,
2013-09-27 02:22:00,51.0,38.0,30.15,North,0,0.0,0.0,61,0.00,,,0.00,,2013-09-27 09:22:00,
2013-09-27 02:53:00,51.0,38.0,30.15,North,0,0.0,0.0,60,0.00,,,0.00,,2013-09-27 09:53:00,
2013-09-27 03:23:00,51.0,39.0,30.15,North,0,0.0,0.0,63,0.00,,,0.00,,2013-09-27 10:23:00,
2013-09-27 03:52:00,51.0,39.0,30.14,North,0,0.0,0.0,63,0.00,,,0.00,,2013-09-27 10:52:00,
2013-09-27 04:22:00,51.0,40.0,30.12,North,0,0.0,0.0,67,0.00,,,0.00,,2013-09-27 11:22:00,
2013-09-27 04:52:00,51.0,40.0,30.12,North,0,0.0,0.0,67,0.00,,,0.00,,2013-09-27 11:52:00,
2013-09-27 05:21:00,51.0,40.0,30.12,North,0,0.0,0.0,66,0.00,,,0.00,,2013-09-27 12:21:00,
2013-09-27 05:52:00,51.0,40.0,30.10,North,0,0.0,0.0,65,0.00,,,0.00,,2013-09-27 12:52:00,
2013-09-27 06:21:00,51.0,41.0,30.10,North,0,0.0,0.0,68,0.00,,,0.00,,2013-09-27 13:21:00,
2013-09-27 07:21:00,51.0,40.0,30.09,North,0,0.0,0.0,65,0.00,,,0.00,,2013-09-27 14:21:00,
2013-09-27 07:52:00,51.0,38.0,30.08,North,0,0.0,0.0,62,0.00,,,0.00,,2013-09-27 14:52:00,
2013-09-27 08:54:00,51.0,38.0,30.08,North,0,0.0,0.0,61,0.00,,,0.00,,2013-09-27 15:54:00,
2013-09-27 09:24:00,52.0,47.0,30.09,North,0,0.0,0.0,82,0.02,,,0.02,,2013-09-27 16:24:00,
2013-09-27 09:53:00,51.0,50.0,30.07,North,0,0.0,0.0,95,0.11,,,0.11,,2013-09-27 16:53:00,
2013-09-27 10:23:00,51.0,49.0,30.06,North,0,0.0,0.0,92,0.17,,,0.17,,2013-09-27 17:23:00,
2013-09-27 10:52:00,51.0,48.0,30.06,North,0,0.0,0.0,90,0.13,,,0.21,,2013-09-27 17:52:00,
2013-09-27 11:21:00,51.0,49.0,30.05,North,0,0.0,0.0,93,0.12,,,0.21,,2013-09-27 18:21:00,
2013-09-27 11:52:00,50.0,48.0,30.03,North,0,0.0,0.0,93,0.14,,,0.33,,2013-09-27 18:52:00,
2013-09-27 12:22:00,51.0,46.0,30.02,North,0,0.0,0.0,83,0.11,,,0.33,,2013-09-27 19:22:00,
2013-09-27 12:53:00,51.0,48.0,30.02,North,0,0.0,0.0,91,0.06,,,0.42,,2013-09-27 19:53:00,
2013-09-27 13:22:00,51.0,47.0,30.00,NNW,338,19.0,30.0,85,0.03,,,0.42,,2013-09-27 20:22:00,
2013-09-27 13:52:00,51.0,49.0,30.00,North,0,0.0,28.0,92,0.01,,,0.45,,2013-09-27 20:52:00,
2013-09-27 14:21:00,51.0,50.0,30.00,NW,317,17.0,30.0,95,0.03,,,0.45,,2013-09-27 21:21:00,
2013-09-27 14:54:00,51.0,50.0,29.99,North,351,0.0,30.0,95,0.08,,,0.50,,2013-09-27 21:54:00,
2013-09-27 15:24:00,52.0,51.0,29.99,North,0,0.0,25.0,96,0.08,,,0.50,,2013-09-27 22:24:00,
2013-09-27 15:53:00,52.0,51.0,29.99,North,0,0.0,0.0,95,0.05,,,0.57,,2013-09-27 22:53:00,
2013-09-27 16:22:00,52.0,51.0,29.98,North,0,0.0,0.0,95,0.04,,,0.57,,2013-09-27 23:22:00,
2013-09-27 16:53:00,52.0,51.0,29.99,North,0,0.0,23.0,98,0.04,,,0.61,,2013-09-27 23:53:00,
2013-09-27 17:22:00,52.0,52.0,29.98,North,0,0.0,0.0,99,0.04,,,0.61,,2013-09-28 00:22:00,
2013-09-27 17:52:00,53.0,51.0,29.99,North,0,0.0,0.0,94,0.04,,,0.64,,2013-09-28 00:52:00,
2013-09-27 18:21:00,53.0,52.0,29.98,North,0,0.0,0.0,97,0.10,,,0.64,,2013-09-28 01:21:00,
2013-09-27 18:52:00,53.0,52.0,29.98,North,0,0.0,0.0,97,0.10,,,0.75,,2013-09-28 01:52:00,
2013-09-27 19:22:00,53.0,53.0,29.96,North,0,0.0,0.0,99,0.04,,,0.75,,2013-09-28 02:22:00,
2013-09-27 19:53:00,53.0,51.0,29.95,North,0,0.0,0.0,94,0.10,,,0.79,,2013-09-28 02:53:00,
2013-09-27 20:22:00,54.0,53.0,29.94,North,0,0.0,0.0,95,0.17,,,0.79,,2013-09-28 03:22:00,
2013-09-27 20:55:00,55.0,54.0,29.94,North,0,0.0,0.0,97,0.28,,,0.99,,2013-09-28 03:55:00,
2013-09-27 21:24:00,56.0,55.0,29.94,North,0,0.0,0.0,97,0.24,,,0.99,,2013-09-28 04:24:00,
2013-09-27 21:54:00,56.0,55.0,29.93,North,0,0.0,0.0,98,0.08,,,1.20,,2013-09-28 04:54:00,
2013-09-27 22:22:00,57.0,53.0,29.92,North,0,0.0,0.0,87,0.09,,,1.20,,2013-09-28 05:22:00,
2013-09-27 22:53:00,57.0,56.0,29.92,North,0,0.0,0.0,95,0.12,,,1.32,,2013-09-28 05:53:00,
2013-09-27 23:22:00,57.0,56.0,29.91,North,0,0.0,0.0,96,0.08,,,1.32,,2013-09-28 06:22:00,
2013-09-27 23:52:00,57.0,56.0,29.90,North,0,0.0,0.0,98,0.06,,,1.36,,2013-09-28 06:52:00,